Terminal Aerodrome Forecast
Issued by NWS

Home | Current Version | Previous Version | Graphics & Text | Print | Product List | Glossary On
Versions: 1 2 3 4 5 6 7 8 9 10 11 12 13 14 15 16 17 18 19 20
330
FTUS43 KBIS 221724
TAFMOT
TAF
KMOT 221724Z 2218/2318 08009KT P6SM SCT120 SCT250
     FM222300 10013KT P6SM SCT100 BKN250
     FM230300 12010KT P6SM SHRA VCTS BKN090CB
     FM231200 13012KT P6SM VCTS BKN090CB
     FM231400 17011G17KT P6SM -SHRA VCTS BKN050CB
     FM231500 18012G18KT P6SM -SHRA VCTS BKN030CB
     FM231700 22014G20KT P6SM -SHRA VCTS BKN080CB=

USA.gov is the U.S. government's official web portal to all federal, state and local government web resources and services.